KSOW

Show Low Regional Airport

Show Low, Arizona, USA
METAR KSOW 230455Z AUTO 00000KT 10SM CLR 10/08 A3018 RMK AO2
Observed Flight Rules
Oct-23 @ 04:55 UTC (23 minutes ago) Visual Flight Rules
Visibility Clouds
10 miles
  • Clear skies
Temperatures Readings
Current 10°C / 50°F
Dewpoint 8°C / 46°F
Humidity 88%
Altimeter 30.18" Hg
Pressure 1022 hPa
Elevation 1954
METAR KSOW 230455Z AUTO 00000KT 10SM CLR 10/08 A3018 RMK AO2
Observed Flight Rules
Oct-23 @ 04:55 UTC
(23 minutes ago)
VFR
Clouds
  • Clear skies
Temperature Dewpoint
10°C / 50°F 8°C / 46°F
Humidity Altimeter Pressure
88% 30.18" Hg 1022 hPa